sensor_id;sensor_type;location;lat;lon;timestamp;P1;durP1;ratioP1;P2;durP2;ratioP2
66127;SDS011;52925;52.436;-1.952;2023-11-21T05:27:19;0.77;;;0.27;;
66127;SDS011;52925;52.436;-1.952;2023-11-21T05:28:50;0.40;;;0.30;;
66127;SDS011;52925;52.436;-1.952;2023-11-21T05:30:25;0.80;;;0.30;;
66127;SDS011;52925;52.436;-1.952;2023-11-21T05:32:01;0.97;;;0.40;;
66127;SDS011;52925;52.436;-1.952;2023-11-21T05:33:59;1.93;;;0.50;;
66127;SDS011;52925;52.436;-1.952;2023-11-21T05:35:22;1.20;;;0.40;;
66127;SDS011;52925;52.436;-1.952;2023-11-21T05:36:53;1.30;;;0.40;;
66127;SDS011;52925;52.436;-1.952;2023-11-21T05:38:33;2.73;;;0.60;;
66127;SDS011;52925;52.436;-1.952;2023-11-21T05:39:55;1.83;;;0.50;;
66127;SDS011;52925;52.436;-1.952;2023-11-21T05:41:15;1.43;;;0.60;;
66127;SDS011;52925;52.436;-1.952;2023-11-21T05:42:38;1.43;;;0.40;;
66127;SDS011;52925;52.436;-1.952;2023-11-21T05:43:59;1.17;;;0.53;;
66127;SDS011;52925;52.436;-1.952;2023-11-21T05:45:21;1.57;;;0.50;;
66127;SDS011;52925;52.436;-1.952;2023-11-21T05:46:41;1.60;;;0.50;;
66127;SDS011;52925;52.436;-1.952;2023-11-21T05:48:06;2.10;;;0.53;;
66127;SDS011;52925;52.436;-1.952;2023-11-21T05:49:28;0.60;;;0.40;;
66127;SDS011;52925;52.436;-1.952;2023-11-21T05:50:49;1.47;;;0.40;;
66127;SDS011;52925;52.436;-1.952;2023-11-21T05:52:10;0.77;;;0.37;;
66127;SDS011;52925;52.436;-1.952;2023-11-21T05:53:30;1.53;;;0.70;;
66127;SDS011;52925;52.436;-1.952;2023-11-21T05:54:51;1.10;;;0.60;;
66127;SDS011;52925;52.436;-1.952;2023-11-21T05:56:12;1.00;;;0.40;;
66127;SDS011;52925;52.436;-1.952;2023-11-21T05:57:33;1.40;;;0.53;;
66127;SDS011;52925;52.436;-1.952;2023-11-21T05:58:56;1.13;;;0.50;;
66127;SDS011;52925;52.436;-1.952;2023-11-21T06:00:17;1.23;;;0.50;;
66127;SDS011;52925;52.436;-1.952;2023-11-21T06:01:39;1.80;;;0.40;;
66127;SDS011;52925;52.436;-1.952;2023-11-21T06:03:00;1.87;;;0.40;;
66127;SDS011;52925;52.436;-1.952;2023-11-21T06:04:20;1.13;;;0.30;;
66127;SDS011;52925;52.436;-1.952;2023-11-21T06:05:43;0.93;;;0.40;;
66127;SDS011;52925;52.436;-1.952;2023-11-21T06:07:03;0.77;;;0.40;;
66127;SDS011;52925;52.436;-1.952;2023-11-21T06:08:25;1.80;;;0.50;;
66127;SDS011;52925;52.436;-1.952;2023-11-21T06:09:45;1.57;;;0.47;;
66127;SDS011;52925;52.436;-1.952;2023-11-21T06:11:09;2.70;;;0.30;;
66127;SDS011;52925;52.436;-1.952;2023-11-21T06:12:30;1.17;;;0.30;;
66127;SDS011;52925;52.436;-1.952;2023-11-21T06:13:54;1.27;;;0.40;;
66127;SDS011;52925;52.436;-1.952;2023-11-21T06:15:16;1.23;;;0.40;;
66127;SDS011;52925;52.436;-1.952;2023-11-21T06:16:38;0.70;;;0.40;;
66127;SDS011;52925;52.436;-1.952;2023-11-21T06:17:59;1.33;;;0.53;;
66127;SDS011;52925;52.436;-1.952;2023-11-21T06:19:20;0.50;;;0.30;;
66127;SDS011;52925;52.436;-1.952;2023-11-21T06:20:40;0.30;;;0.20;;
66127;SDS011;52925;52.436;-1.952;2023-11-21T06:22:01;1.93;;;0.30;;
66127;SDS011;52925;52.436;-1.952;2023-11-21T06:23:22;1.90;;;0.50;;
66127;SDS011;52925;52.436;-1.952;2023-11-21T06:24:43;0.63;;;0.30;;
66127;SDS011;52925;52.436;-1.952;2023-11-21T06:26:04;1.17;;;0.20;;
66127;SDS011;52925;52.436;-1.952;2023-11-21T06:27:25;0.70;;;0.30;;
66127;SDS011;52925;52.436;-1.952;2023-11-21T06:28:45;1.03;;;0.30;;
66127;SDS011;52925;52.436;-1.952;2023-11-21T06:30:08;1.43;;;0.33;;
66127;SDS011;52925;52.436;-1.952;2023-11-21T06:31:29;1.50;;;0.47;;
66127;SDS011;52925;52.436;-1.952;2023-11-21T06:32:51;0.83;;;0.40;;
66127;SDS011;52925;52.436;-1.952;2023-11-21T06:34:11;0.37;;;0.30;;
66127;SDS011;52925;52.436;-1.952;2023-11-21T06:35:33;2.30;;;0.40;;
66127;SDS011;52925;52.436;-1.952;2023-11-21T06:36:53;0.60;;;0.33;;
66127;SDS011;52925;52.436;-1.952;2023-11-21T06:38:15;2.03;;;0.20;;
66127;SDS011;52925;52.436;-1.952;2023-11-21T06:39:36;0.80;;;0.30;;
66127;SDS011;52925;52.436;-1.952;2023-11-21T06:40:58;0.67;;;0.37;;
66127;SDS011;52925;52.436;-1.952;2023-11-21T06:42:20;2.33;;;0.30;;
66127;SDS011;52925;52.436;-1.952;2023-11-21T06:43:43;0.63;;;0.30;;
66127;SDS011;52925;52.436;-1.952;2023-11-21T06:45:05;1.23;;;0.20;;
66127;SDS011;52925;52.436;-1.952;2023-11-21T06:46:29;0.40;;;0.30;;
66127;SDS011;52925;52.436;-1.952;2023-11-21T06:47:49;0.60;;;0.30;;
66127;SDS011;52925;52.436;-1.952;2023-11-21T06:49:11;3.50;;;0.50;;
66127;SDS011;52925;52.436;-1.952;2023-11-21T06:50:31;2.60;;;0.43;;
66127;SDS011;52925;52.436;-1.952;2023-11-21T06:51:52;2.47;;;0.40;;
66127;SDS011;52925;52.436;-1.952;2023-11-21T06:53:13;0.73;;;0.20;;
66127;SDS011;52925;52.436;-1.952;2023-11-21T06:54:34;1.20;;;0.30;;
66127;SDS011;52925;52.436;-1.952;2023-11-21T06:55:54;0.60;;;0.30;;
66127;SDS011;52925;52.436;-1.952;2023-11-21T06:57:15;0.43;;;0.20;;
66127;SDS011;52925;52.436;-1.952;2023-11-21T06:58:41;1.30;;;0.30;;
66127;SDS011;52925;52.436;-1.952;2023-11-21T07:00:04;1.17;;;0.20;;
66127;SDS011;52925;52.436;-1.952;2023-11-21T07:01:29;0.50;;;0.30;;
66127;SDS011;52925;52.436;-1.952;2023-11-21T07:02:57;1.20;;;0.20;;
66127;SDS011;52925;52.436;-1.952;2023-11-21T07:04:27;0.73;;;0.30;;
66127;SDS011;52925;52.436;-1.952;2023-11-21T07:05:49;0.57;;;0.40;;
66127;SDS011;52925;52.436;-1.952;2023-11-21T07:07:09;0.80;;;0.27;;
66127;SDS011;52925;52.436;-1.952;2023-11-21T07:08:31;3.17;;;0.43;;
66127;SDS011;52925;52.436;-1.952;2023-11-21T07:09:51;0.57;;;0.23;;
66127;SDS011;52925;52.436;-1.952;2023-11-21T07:11:13;0.67;;;0.30;;
66127;SDS011;52925;52.436;-1.952;2023-11-21T07:12:33;0.80;;;0.40;;
66127;SDS011;52925;52.436;-1.952;2023-11-21T07:13:55;0.73;;;0.40;;
66127;SDS011;52925;52.436;-1.952;2023-11-21T07:15:15;1.13;;;0.30;;
66127;SDS011;52925;52.436;-1.952;2023-11-21T07:16:40;1.10;;;0.30;;
66127;SDS011;52925;52.436;-1.952;2023-11-21T07:18:00;0.77;;;0.40;;
66127;SDS011;52925;52.436;-1.952;2023-11-21T18:24:03;3.90;;;2.17;;
66127;SDS011;52925;52.436;-1.952;2023-11-21T18:25:26;5.67;;;2.70;;
66127;SDS011;52925;52.436;-1.952;2023-11-21T18:26:47;5.73;;;2.70;;
66127;SDS011;52925;52.436;-1.952;2023-11-21T18:28:10;3.87;;;2.40;;
66127;SDS011;52925;52.436;-1.952;2023-11-21T18:29:30;6.50;;;2.83;;
66127;SDS011;52925;52.436;-1.952;2023-11-21T18:30:51;3.43;;;2.30;;
66127;SDS011;52925;52.436;-1.952;2023-11-21T18:32:11;7.37;;;2.90;;
66127;SDS011;52925;52.436;-1.952;2023-11-21T18:33:34;5.63;;;2.37;;
66127;SDS011;52925;52.436;-1.952;2023-11-21T18:34:54;7.23;;;2.50;;
66127;SDS011;52925;52.436;-1.952;2023-11-21T18:36:16;4.87;;;2.63;;
66127;SDS011;52925;52.436;-1.952;2023-11-21T18:37:36;6.60;;;2.87;;
66127;SDS011;52925;52.436;-1.952;2023-11-21T18:38:57;12.20;;;3.27;;
66127;SDS011;52925;52.436;-1.952;2023-11-21T18:40:19;8.20;;;2.90;;
66127;SDS011;52925;52.436;-1.952;2023-11-21T18:41:40;4.97;;;2.47;;
66127;SDS011;52925;52.436;-1.952;2023-11-21T18:43:00;5.50;;;2.63;;
66127;SDS011;52925;52.436;-1.952;2023-11-21T18:44:22;7.77;;;3.07;;
66127;SDS011;52925;52.436;-1.952;2023-11-21T18:45:42;5.17;;;2.80;;
66127;SDS011;52925;52.436;-1.952;2023-11-21T18:47:03;8.83;;;3.00;;
66127;SDS011;52925;52.436;-1.952;2023-11-21T18:48:25;7.37;;;2.83;;
66127;SDS011;52925;52.436;-1.952;2023-11-21T18:49:46;5.60;;;2.77;;
66127;SDS011;52925;52.436;-1.952;2023-11-21T18:51:07;4.20;;;2.73;;
66127;SDS011;52925;52.436;-1.952;2023-11-21T18:52:28;4.00;;;2.77;;
66127;SDS011;52925;52.436;-1.952;2023-11-21T18:53:48;4.77;;;2.23;;
66127;SDS011;52925;52.436;-1.952;2023-11-21T18:55:09;5.23;;;2.87;;
66127;SDS011;52925;52.436;-1.952;2023-11-21T18:56:31;4.50;;;2.53;;
66127;SDS011;52925;52.436;-1.952;2023-11-21T18:57:53;8.37;;;3.10;;
66127;SDS011;52925;52.436;-1.952;2023-11-21T18:59:14;3.87;;;2.67;;
66127;SDS011;52925;52.436;-1.952;2023-11-21T19:00:35;5.13;;;2.57;;
66127;SDS011;52925;52.436;-1.952;2023-11-21T19:01:56;4.30;;;2.80;;
66127;SDS011;52925;52.436;-1.952;2023-11-21T19:03:20;6.03;;;3.30;;
66127;SDS011;52925;52.436;-1.952;2023-11-21T19:04:40;6.50;;;3.23;;
66127;SDS011;52925;52.436;-1.952;2023-11-21T19:06:01;5.03;;;3.00;;
66127;SDS011;52925;52.436;-1.952;2023-11-21T19:07:21;5.87;;;2.67;;
66127;SDS011;52925;52.436;-1.952;2023-11-21T19:08:43;4.83;;;2.37;;
66127;SDS011;52925;52.436;-1.952;2023-11-21T19:10:02;4.90;;;2.50;;
66127;SDS011;52925;52.436;-1.952;2023-11-21T19:11:26;4.10;;;2.50;;
66127;SDS011;52925;52.436;-1.952;2023-11-21T19:12:47;4.53;;;2.80;;
66127;SDS011;52925;52.436;-1.952;2023-11-21T19:14:10;4.93;;;2.80;;
66127;SDS011;52925;52.436;-1.952;2023-11-21T19:15:30;6.30;;;2.83;;
66127;SDS011;52925;52.436;-1.952;2023-11-21T19:16:51;5.17;;;2.57;;
66127;SDS011;52925;52.436;-1.952;2023-11-21T19:18:11;4.33;;;2.60;;
66127;SDS011;52925;52.436;-1.952;2023-11-21T19:19:33;4.37;;;2.67;;
66127;SDS011;52925;52.436;-1.952;2023-11-21T19:20:53;3.23;;;2.40;;
66127;SDS011;52925;52.436;-1.952;2023-11-21T19:22:15;4.80;;;2.90;;
66127;SDS011;52925;52.436;-1.952;2023-11-21T19:23:35;5.93;;;2.93;;
66127;SDS011;52925;52.436;-1.952;2023-11-21T19:24:56;4.30;;;2.63;;
66127;SDS011;52925;52.436;-1.952;2023-11-21T19:26:16;7.63;;;2.90;;
66127;SDS011;52925;52.436;-1.952;2023-11-21T19:27:38;5.63;;;2.90;;
66127;SDS011;52925;52.436;-1.952;2023-11-21T19:28:59;4.90;;;2.40;;
66127;SDS011;52925;52.436;-1.952;2023-11-21T19:30:20;6.13;;;2.90;;
66127;SDS011;52925;52.436;-1.952;2023-11-21T19:31:40;4.33;;;2.57;;
66127;SDS011;52925;52.436;-1.952;2023-11-21T19:33:01;4.47;;;2.60;;
66127;SDS011;52925;52.436;-1.952;2023-11-21T19:34:24;4.07;;;2.77;;
66127;SDS011;52925;52.436;-1.952;2023-11-21T19:35:45;3.93;;;2.40;;
66127;SDS011;52925;52.436;-1.952;2023-11-21T19:37:05;5.63;;;3.03;;
66127;SDS011;52925;52.436;-1.952;2023-11-21T19:38:26;5.23;;;2.80;;
66127;SDS011;52925;52.436;-1.952;2023-11-21T19:39:50;4.80;;;2.83;;
66127;SDS011;52925;52.436;-1.952;2023-11-21T19:41:13;4.10;;;2.60;;
66127;SDS011;52925;52.436;-1.952;2023-11-21T19:42:34;5.03;;;2.70;;
66127;SDS011;52925;52.436;-1.952;2023-11-21T19:43:55;4.57;;;3.17;;
66127;SDS011;52925;52.436;-1.952;2023-11-21T19:45:19;5.73;;;2.87;;
66127;SDS011;52925;52.436;-1.952;2023-11-21T19:46:39;5.57;;;2.90;;
66127;SDS011;52925;52.436;-1.952;2023-11-21T19:48:00;5.20;;;2.77;;
66127;SDS011;52925;52.436;-1.952;2023-11-21T19:49:20;5.83;;;3.07;;
66127;SDS011;52925;52.436;-1.952;2023-11-21T19:50:41;3.77;;;2.73;;
66127;SDS011;52925;52.436;-1.952;2023-11-21T19:52:01;4.90;;;3.03;;
66127;SDS011;52925;52.436;-1.952;2023-11-21T19:53:25;5.07;;;2.87;;
66127;SDS011;52925;52.436;-1.952;2023-11-21T19:54:45;5.03;;;2.90;;
66127;SDS011;52925;52.436;-1.952;2023-11-21T19:56:06;5.33;;;3.03;;
66127;SDS011;52925;52.436;-1.952;2023-11-21T19:57:28;9.27;;;3.37;;
66127;SDS011;52925;52.436;-1.952;2023-11-21T19:58:49;6.87;;;3.17;;
66127;SDS011;52925;52.436;-1.952;2023-11-21T20:00:10;5.17;;;3.20;;
66127;SDS011;52925;52.436;-1.952;2023-11-21T20:01:34;5.00;;;2.87;;
66127;SDS011;52925;52.436;-1.952;2023-11-21T20:02:55;4.93;;;3.17;;
66127;SDS011;52925;52.436;-1.952;2023-11-21T20:04:16;5.17;;;3.33;;
66127;SDS011;52925;52.436;-1.952;2023-11-21T20:05:36;4.53;;;3.07;;
66127;SDS011;52925;52.436;-1.952;2023-11-21T20:06:56;6.57;;;3.33;;
66127;SDS011;52925;52.436;-1.952;2023-11-21T20:08:16;3.80;;;2.93;;
66127;SDS011;52925;52.436;-1.952;2023-11-21T20:09:38;4.93;;;3.03;;
66127;SDS011;52925;52.436;-1.952;2023-11-21T20:10:58;6.90;;;3.53;;
66127;SDS011;52925;52.436;-1.952;2023-11-21T20:12:19;5.63;;;3.17;;
66127;SDS011;52925;52.436;-1.952;2023-11-21T20:13:42;4.63;;;3.17;;
66127;SDS011;52925;52.436;-1.952;2023-11-21T20:15:03;5.67;;;3.33;;
66127;SDS011;52925;52.436;-1.952;2023-11-21T20:16:25;4.73;;;3.10;;
66127;SDS011;52925;52.436;-1.952;2023-11-21T20:17:47;4.33;;;3.37;;
66127;SDS011;52925;52.436;-1.952;2023-11-21T20:19:07;5.33;;;3.63;;
66127;SDS011;52925;52.436;-1.952;2023-11-21T20:20:29;3.37;;;3.00;;
66127;SDS011;52925;52.436;-1.952;2023-11-21T20:21:48;4.60;;;3.23;;
66127;SDS011;52925;52.436;-1.952;2023-11-21T20:23:09;4.63;;;3.13;;
66127;SDS011;52925;52.436;-1.952;2023-11-21T20:24:29;5.77;;;3.33;;
66127;SDS011;52925;52.436;-1.952;2023-11-21T20:25:53;7.23;;;3.90;;
66127;SDS011;52925;52.436;-1.952;2023-11-21T20:27:16;4.97;;;3.47;;
66127;SDS011;52925;52.436;-1.952;2023-11-21T20:28:37;7.20;;;4.07;;
66127;SDS011;52925;52.436;-1.952;2023-11-21T20:29:57;4.93;;;3.90;;
66127;SDS011;52925;52.436;-1.952;2023-11-21T20:31:19;5.87;;;4.10;;
66127;SDS011;52925;52.436;-1.952;2023-11-21T20:32:39;5.17;;;4.40;;
66127;SDS011;52925;52.436;-1.952;2023-11-21T20:34:01;6.77;;;3.90;;
66127;SDS011;52925;52.436;-1.952;2023-11-21T20:35:23;6.50;;;4.47;;
66127;SDS011;52925;52.436;-1.952;2023-11-21T20:36:46;7.73;;;4.37;;
66127;SDS011;52925;52.436;-1.952;2023-11-21T20:38:06;7.93;;;4.10;;
66127;SDS011;52925;52.436;-1.952;2023-11-21T20:39:30;6.90;;;4.20;;
66127;SDS011;52925;52.436;-1.952;2023-11-21T20:40:52;7.00;;;4.60;;
66127;SDS011;52925;52.436;-1.952;2023-11-21T20:42:14;6.27;;;3.80;;
66127;SDS011;52925;52.436;-1.952;2023-11-21T20:43:34;7.72;;;4.22;;
66127;SDS011;52925;52.436;-1.952;2023-11-21T20:44:55;6.17;;;4.57;;
66127;SDS011;52925;52.436;-1.952;2023-11-21T20:46:15;5.50;;;3.83;;
66127;SDS011;52925;52.436;-1.952;2023-11-21T20:47:36;5.67;;;4.07;;
66127;SDS011;52925;52.436;-1.952;2023-11-21T20:48:56;9.10;;;4.10;;
66127;SDS011;52925;52.436;-1.952;2023-11-21T20:50:18;7.40;;;4.97;;
66127;SDS011;52925;52.436;-1.952;2023-11-21T20:51:41;7.13;;;4.23;;
66127;SDS011;52925;52.436;-1.952;2023-11-21T20:53:04;5.70;;;4.20;;
66127;SDS011;52925;52.436;-1.952;2023-11-21T20:54:26;6.17;;;4.40;;
66127;SDS011;52925;52.436;-1.952;2023-11-21T20:55:47;8.57;;;4.20;;
66127;SDS011;52925;52.436;-1.952;2023-11-21T20:57:08;6.03;;;3.93;;
66127;SDS011;52925;52.436;-1.952;2023-11-21T20:58:29;6.30;;;4.60;;
66127;SDS011;52925;52.436;-1.952;2023-11-21T20:59:49;8.03;;;4.27;;
66127;SDS011;52925;52.436;-1.952;2023-11-21T21:01:11;6.47;;;4.70;;
66127;SDS011;52925;52.436;-1.952;2023-11-21T21:02:32;7.93;;;4.50;;
66127;SDS011;52925;52.436;-1.952;2023-11-21T21:03:53;5.30;;;4.03;;
66127;SDS011;52925;52.436;-1.952;2023-11-21T21:05:14;6.00;;;4.27;;
66127;SDS011;52925;52.436;-1.952;2023-11-21T21:06:36;6.30;;;4.47;;
66127;SDS011;52925;52.436;-1.952;2023-11-21T21:07:57;4.97;;;4.00;;
66127;SDS011;52925;52.436;-1.952;2023-11-21T21:09:18;5.67;;;4.40;;
66127;SDS011;52925;52.436;-1.952;2023-11-21T21:10:38;8.03;;;4.70;;
66127;SDS011;52925;52.436;-1.952;2023-11-21T21:11:59;7.20;;;4.80;;
66127;SDS011;52925;52.436;-1.952;2023-11-21T21:13:19;7.63;;;4.57;;
66127;SDS011;52925;52.436;-1.952;2023-11-21T21:14:40;8.73;;;4.20;;
66127;SDS011;52925;52.436;-1.952;2023-11-21T21:16:00;7.23;;;4.70;;
66127;SDS011;52925;52.436;-1.952;2023-11-21T21:17:22;6.93;;;4.17;;
66127;SDS011;52925;52.436;-1.952;2023-11-21T21:18:42;4.90;;;4.40;;
66127;SDS011;52925;52.436;-1.952;2023-11-21T21:20:04;6.60;;;4.33;;
66127;SDS011;52925;52.436;-1.952;2023-11-21T21:21:25;6.93;;;4.63;;
66127;SDS011;52925;52.436;-1.952;2023-11-21T21:22:48;8.20;;;4.80;;
66127;SDS011;52925;52.436;-1.952;2023-11-21T21:24:10;7.47;;;4.50;;
66127;SDS011;52925;52.436;-1.952;2023-11-21T21:25:31;7.70;;;4.50;;
66127;SDS011;52925;52.436;-1.952;2023-11-21T21:26:51;7.87;;;4.47;;
66127;SDS011;52925;52.436;-1.952;2023-11-21T21:28:11;5.77;;;4.40;;
66127;SDS011;52925;52.436;-1.952;2023-11-21T21:29:32;7.57;;;4.70;;
66127;SDS011;52925;52.436;-1.952;2023-11-21T21:30:53;7.17;;;4.60;;
66127;SDS011;52925;52.436;-1.952;2023-11-21T21:32:16;6.47;;;4.53;;
66127;SDS011;52925;52.436;-1.952;2023-11-21T21:33:36;5.47;;;3.90;;
66127;SDS011;52925;52.436;-1.952;2023-11-21T21:34:56;7.50;;;4.67;;
66127;SDS011;52925;52.436;-1.952;2023-11-21T21:36:17;7.20;;;4.53;;
66127;SDS011;52925;52.436;-1.952;2023-11-21T21:37:39;5.73;;;4.20;;
66127;SDS011;52925;52.436;-1.952;2023-11-21T21:39:01;6.90;;;4.57;;
66127;SDS011;52925;52.436;-1.952;2023-11-21T21:40:21;9.53;;;4.77;;
66127;SDS011;52925;52.436;-1.952;2023-11-21T21:41:42;6.83;;;4.87;;
66127;SDS011;52925;52.436;-1.952;2023-11-21T21:43:02;7.57;;;4.70;;
66127;SDS011;52925;52.436;-1.952;2023-11-21T21:44:24;6.43;;;4.40;;
66127;SDS011;52925;52.436;-1.952;2023-11-21T21:45:44;5.80;;;4.17;;
66127;SDS011;52925;52.436;-1.952;2023-11-21T21:47:05;5.63;;;3.90;;
66127;SDS011;52925;52.436;-1.952;2023-11-21T21:48:25;8.07;;;4.70;;
66127;SDS011;52925;52.436;-1.952;2023-11-21T21:49:46;7.67;;;4.67;;
66127;SDS011;52925;52.436;-1.952;2023-11-21T21:51:13;8.03;;;4.73;;
66127;SDS011;52925;52.436;-1.952;2023-11-21T21:52:34;5.73;;;4.57;;
66127;SDS011;52925;52.436;-1.952;2023-11-21T21:53:55;7.40;;;4.80;;
66127;SDS011;52925;52.436;-1.952;2023-11-21T21:55:17;6.40;;;4.80;;
66127;SDS011;52925;52.436;-1.952;2023-11-21T21:56:38;6.87;;;4.50;;
66127;SDS011;52925;52.436;-1.952;2023-11-21T21:57:59;8.33;;;4.77;;
66127;SDS011;52925;52.436;-1.952;2023-11-21T21:59:19;6.30;;;4.73;;
66127;SDS011;52925;52.436;-1.952;2023-11-21T22:00:40;6.30;;;4.73;;
66127;SDS011;52925;52.436;-1.952;2023-11-21T22:02:01;7.03;;;4.57;;
66127;SDS011;52925;52.436;-1.952;2023-11-21T22:03:21;7.37;;;5.00;;
66127;SDS011;52925;52.436;-1.952;2023-11-21T22:04:42;6.50;;;4.80;;
66127;SDS011;52925;52.436;-1.952;2023-11-21T22:06:02;8.13;;;5.03;;
66127;SDS011;52925;52.436;-1.952;2023-11-21T22:07:24;9.17;;;4.70;;
66127;SDS011;52925;52.436;-1.952;2023-11-21T22:08:43;9.53;;;5.00;;
66127;SDS011;52925;52.436;-1.952;2023-11-21T22:10:05;6.07;;;4.70;;
66127;SDS011;52925;52.436;-1.952;2023-11-21T22:11:26;7.27;;;4.70;;
66127;SDS011;52925;52.436;-1.952;2023-11-21T22:12:47;7.07;;;4.83;;
66127;SDS011;52925;52.436;-1.952;2023-11-21T22:14:07;7.57;;;5.03;;
66127;SDS011;52925;52.436;-1.952;2023-11-21T22:15:29;6.27;;;5.10;;
66127;SDS011;52925;52.436;-1.952;2023-11-21T22:16:48;8.63;;;4.83;;
66127;SDS011;52925;52.436;-1.952;2023-11-21T22:18:09;6.77;;;4.80;;
66127;SDS011;52925;52.436;-1.952;2023-11-21T22:19:29;6.13;;;5.03;;
66127;SDS011;52925;52.436;-1.952;2023-11-21T22:20:50;6.20;;;4.83;;
66127;SDS011;52925;52.436;-1.952;2023-11-21T22:22:10;7.03;;;4.70;;
66127;SDS011;52925;52.436;-1.952;2023-11-21T22:23:31;5.60;;;4.23;;
66127;SDS011;52925;52.436;-1.952;2023-11-21T22:24:51;6.83;;;4.70;;
66127;SDS011;52925;52.436;-1.952;2023-11-21T22:26:13;7.53;;;4.70;;
66127;SDS011;52925;52.436;-1.952;2023-11-21T22:27:36;7.97;;;4.90;;
66127;SDS011;52925;52.436;-1.952;2023-11-21T22:28:57;6.30;;;4.53;;
66127;SDS011;52925;52.436;-1.952;2023-11-21T22:30:18;7.80;;;5.10;;
66127;SDS011;52925;52.436;-1.952;2023-11-21T22:31:42;7.70;;;5.03;;
66127;SDS011;52925;52.436;-1.952;2023-11-21T22:33:02;7.50;;;5.03;;
66127;SDS011;52925;52.436;-1.952;2023-11-21T22:34:23;9.50;;;4.83;;
66127;SDS011;52925;52.436;-1.952;2023-11-21T22:35:44;8.23;;;5.40;;
66127;SDS011;52925;52.436;-1.952;2023-11-21T22:37:05;7.57;;;5.07;;
66127;SDS011;52925;52.436;-1.952;2023-11-21T22:38:25;10.37;;;5.00;;
66127;SDS011;52925;52.436;-1.952;2023-11-21T22:39:45;6.37;;;5.20;;
66127;SDS011;52925;52.436;-1.952;2023-11-21T22:41:05;9.77;;;5.03;;
66127;SDS011;52925;52.436;-1.952;2023-11-21T22:42:26;7.20;;;5.13;;
66127;SDS011;52925;52.436;-1.952;2023-11-21T22:43:48;8.53;;;5.47;;
66127;SDS011;52925;52.436;-1.952;2023-11-21T22:45:09;7.30;;;5.10;;
66127;SDS011;52925;52.436;-1.952;2023-11-21T22:46:29;7.77;;;5.17;;
66127;SDS011;52925;52.436;-1.952;2023-11-21T22:47:50;5.33;;;4.70;;
66127;SDS011;52925;52.436;-1.952;2023-11-21T22:49:11;8.97;;;5.33;;
66127;SDS011;52925;52.436;-1.952;2023-11-21T22:50:32;7.47;;;5.23;;
66127;SDS011;52925;52.436;-1.952;2023-11-21T22:51:53;7.97;;;5.53;;
66127;SDS011;52925;52.436;-1.952;2023-11-21T22:53:15;9.83;;;5.60;;
66127;SDS011;52925;52.436;-1.952;2023-11-21T22:54:35;7.47;;;5.23;;
66127;SDS011;52925;52.436;-1.952;2023-11-21T22:55:56;7.63;;;5.70;;
66127;SDS011;52925;52.436;-1.952;2023-11-21T22:57:16;7.23;;;5.50;;
66127;SDS011;52925;52.436;-1.952;2023-11-21T22:58:37;11.47;;;5.80;;
66127;SDS011;52925;52.436;-1.952;2023-11-21T22:59:58;7.40;;;5.50;;
66127;SDS011;52925;52.436;-1.952;2023-11-21T23:01:19;7.60;;;5.93;;
66127;SDS011;52925;52.436;-1.952;2023-11-21T23:02:39;11.60;;;6.37;;
66127;SDS011;52925;52.436;-1.952;2023-11-21T23:04:01;9.47;;;6.80;;
66127;SDS011;52925;52.436;-1.952;2023-11-21T23:05:22;9.33;;;6.33;;
66127;SDS011;52925;52.436;-1.952;2023-11-21T23:06:43;11.67;;;6.97;;
66127;SDS011;52925;52.436;-1.952;2023-11-21T23:08:04;11.07;;;7.10;;
66127;SDS011;52925;52.436;-1.952;2023-11-21T23:09:24;9.47;;;7.33;;
66127;SDS011;52925;52.436;-1.952;2023-11-21T23:10:45;10.17;;;7.37;;
66127;SDS011;52925;52.436;-1.952;2023-11-21T23:12:05;11.70;;;7.80;;
66127;SDS011;52925;52.436;-1.952;2023-11-21T23:13:27;11.50;;;7.20;;
66127;SDS011;52925;52.436;-1.952;2023-11-21T23:14:48;8.37;;;7.23;;
